Time;durP1;ratioP1;P1;durP2;ratioP2;P2;SDS_P1;SDS_P2;PMS_P1;PMS_P2;Temp;Humidity;BMP_temperature;BMP_pressure;BME280_temperature;BME280_humidity;BME280_pressure;Samples;Min_cycle;Max_cycle;Signal;HPM_P1;HPM_P2
2023/04/29 00:00:12;;;;;;;0.73;0.73;;;12.10;99.90;;;;;;4420594;32;20120;-68
2023/04/29 00:02:37;;;;;;;0.62;0.60;;;12.10;99.90;;;;;;4421907;32;20116;-68
2023/04/29 00:05:04;;;;;;;0.60;0.60;;;12.10;99.90;;;;;;4423888;32;20214;-69
2023/04/29 00:07:31;;;;;;;1.08;0.98;;;12.10;99.90;;;;;;4420469;32;20532;-69
2023/04/29 00:09:57;;;;;;;1.02;0.70;;;12.10;99.90;;;;;;4422361;32;20069;-69
2023/04/29 00:12:22;;;;;;;0.45;0.45;;;12.00;99.90;;;;;;4406598;32;20065;-68
2023/04/29 00:14:48;;;;;;;0.70;0.62;;;12.00;99.90;;;;;;4420018;32;20192;-66
2023/04/29 00:17:13;;;;;;;0.50;0.50;;;12.00;99.90;;;;;;4406613;32;20517;-69
2023/04/29 00:19:40;;;;;;;0.40;0.40;;;11.90;99.90;;;;;;4421140;32;20229;-68
2023/04/29 00:22:05;;;;;;;1.02;0.80;;;11.90;99.90;;;;;;4423383;32;20139;-69
2023/04/29 00:24:30;;;;;;;0.80;0.70;;;11.90;99.90;;;;;;4424671;32;20665;-69
2023/04/29 00:26:56;;;;;;;1.20;0.80;;;11.90;99.90;;;;;;4423228;32;20097;-69
2023/04/29 00:29:22;;;;;;;0.30;0.30;;;12.00;99.90;;;;;;4421713;32;20097;-68
2023/04/29 00:31:48;;;;;;;3.90;1.95;;;11.90;99.90;;;;;;4422882;32;20089;-69
2023/04/29 00:34:13;;;;;;;1.55;0.85;;;12.00;99.90;;;;;;4410183;32;21151;-69
2023/04/29 00:36:39;;;;;;;0.82;0.82;;;12.00;99.90;;;;;;4422191;32;20088;-69
2023/04/29 00:39:04;;;;;;;0.57;0.57;;;11.90;99.90;;;;;;4421139;32;20101;-68
2023/04/29 00:41:31;;;;;;;0.40;0.40;;;11.90;99.90;;;;;;4424043;32;20074;-69
2023/04/29 00:43:56;;;;;;;2.92;0.82;;;11.90;99.90;;;;;;4424668;32;20078;-67
2023/04/29 00:46:22;;;;;;;0.88;0.70;;;11.90;99.90;;;;;;4421111;32;20548;-68
2023/04/29 00:48:48;;;;;;;0.73;0.73;;;11.90;99.90;;;;;;4421557;32;20080;-69
2023/04/29 00:51:15;;;;;;;0.50;0.50;;;11.90;99.90;;;;;;4410435;32;20092;-68
2023/04/29 00:53:41;;;;;;;0.90;0.65;;;11.90;99.90;;;;;;4424053;32;20534;-67
2023/04/29 00:56:07;;;;;;;0.88;0.80;;;12.00;99.90;;;;;;4424229;32;20065;-69
2023/04/29 00:58:34;;;;;;;0.95;0.75;;;12.10;99.90;;;;;;4420654;32;20132;-68
2023/04/29 01:01:02;;;;;;;0.70;0.70;;;12.10;99.90;;;;;;4420978;32;20477;-69
2023/04/29 01:03:30;;;;;;;0.60;0.60;;;12.10;99.90;;;;;;4407765;32;20522;-68
2023/04/29 01:06:10;;;;;;;0.62;0.57;;;12.00;99.90;;;;;;4410767;32;20086;-69
2023/04/29 01:08:51;;;;;;;0.80;0.80;;;11.90;99.90;;;;;;4423580;32;20065;-68
2023/04/29 01:11:22;;;;;;;0.65;0.62;;;11.90;99.90;;;;;;4423033;32;20593;-70
2023/04/29 01:13:50;;;;;;;1.48;0.90;;;11.80;99.90;;;;;;4425295;32;20120;-69
2023/04/29 01:16:36;;;;;;;0.43;0.43;;;11.50;99.90;;;;;;4424091;32;20070;-69
2023/04/29 01:19:14;;;;;;;0.50;0.50;;;11.50;99.90;;;;;;4424541;32;20097;-69
2023/04/29 01:21:47;;;;;;;0.70;0.70;;;11.50;99.90;;;;;;4425067;32;20147;-69
2023/04/29 01:24:13;;;;;;;2.58;1.35;;;11.60;99.90;;;;;;4424387;32;20092;-69
2023/04/29 01:26:41;;;;;;;0.77;0.77;;;11.60;99.90;;;;;;4426068;32;20070;-66
2023/04/29 01:29:28;;;;;;;0.60;0.60;;;11.60;99.90;;;;;;4422189;32;20057;-67
2023/04/29 01:32:04;;;;;;;1.27;0.98;;;11.50;99.90;;;;;;4410475;32;20486;-69
2023/04/29 01:34:35;;;;;;;8.68;0.80;;;11.40;99.90;;;;;;4394528;32;20065;-68
2023/04/29 01:37:25;;;;;;;0.80;0.50;;;11.20;99.90;;;;;;4422590;32;20085;-69
2023/04/29 01:40:04;;;;;;;0.73;0.73;;;11.20;99.90;;;;;;4423696;32;20089;-69
2023/04/29 01:42:38;;;;;;;6.87;1.23;;;11.20;99.90;;;;;;4422407;32;20188;-68
2023/04/29 01:45:07;;;;;;;1.25;1.15;;;11.20;99.90;;;;;;4396038;32;20080;-67
2023/04/29 01:47:34;;;;;;;2.92;1.55;;;11.10;99.90;;;;;;4407083;32;20097;-68
2023/04/29 01:50:01;;;;;;;0.55;0.55;;;11.10;99.90;;;;;;4420604;32;20805;-69
2023/04/29 01:52:27;;;;;;;0.93;0.82;;;11.10;99.90;;;;;;4424007;32;20093;-66
2023/04/29 01:54:53;;;;;;;5.05;1.00;;;11.20;99.90;;;;;;4419790;32;20430;-69
2023/04/29 01:57:18;;;;;;;1.98;0.77;;;11.10;99.90;;;;;;4421131;32;20076;-69
2023/04/29 01:59:43;;;;;;;1.02;0.90;;;11.00;99.90;;;;;;4422300;32;20057;-69
2023/04/29 02:02:09;;;;;;;0.50;0.50;;;11.00;99.90;;;;;;4421653;32;20891;-68
2023/04/29 02:04:34;;;;;;;0.55;0.55;;;10.90;99.90;;;;;;4424588;32;20085;-69
2023/04/29 02:07:00;;;;;;;1.00;0.90;;;10.90;99.90;;;;;;4425705;32;20123;-70
2023/04/29 02:09:26;;;;;;;3.20;1.00;;;10.90;99.90;;;;;;4424303;32;20525;-69
2023/04/29 02:11:51;;;;;;;1.42;1.30;;;11.00;99.90;;;;;;4425468;32;20069;-68
2023/04/29 02:14:17;;;;;;;2.50;1.00;;;11.00;99.90;;;;;;4422000;32;20144;-69
2023/04/29 02:16:44;;;;;;;2.03;1.15;;;11.10;99.90;;;;;;4421775;32;20161;-67
2023/04/29 02:19:10;;;;;;;1.27;1.12;;;11.10;99.90;;;;;;4422900;32;20077;-69
2023/04/29 02:21:35;;;;;;;1.20;1.10;;;11.10;99.90;;;;;;4425063;32;20207;-69
2023/04/29 02:24:01;;;;;;;0.70;0.70;;;11.10;99.90;;;;;;4425502;32;20524;-69
2023/04/29 02:26:27;;;;;;;0.50;0.50;;;11.00;99.90;;;;;;4424748;32;20088;-68
2023/04/29 02:28:52;;;;;;;0.85;0.85;;;11.00;99.90;;;;;;4410061;32;20058;-69
2023/04/29 02:31:18;;;;;;;1.90;1.25;;;11.10;99.90;;;;;;4419383;32;20144;-70
2023/04/29 02:33:43;;;;;;;3.08;0.85;;;11.10;99.90;;;;;;4418960;32;20134;-70
2023/04/29 02:36:08;;;;;;;3.05;0.90;;;11.20;99.90;;;;;;4419204;32;20533;-69
2023/04/29 02:38:34;;;;;;;4.32;1.12;;;11.10;99.90;;;;;;4422252;32;20115;-69
2023/04/29 02:41:00;;;;;;;1.87;0.98;;;11.10;99.90;;;;;;4421065;32;20522;-69
2023/04/29 02:43:25;;;;;;;1.67;0.90;;;11.20;99.90;;;;;;4422027;32;20069;-70
2023/04/29 02:45:52;;;;;;;0.65;0.60;;;11.20;99.90;;;;;;4421338;32;20430;-69
2023/04/29 02:48:17;;;;;;;0.88;0.77;;;11.30;99.90;;;;;;4421943;32;20077;-69
2023/04/29 02:50:43;;;;;;;2.10;0.70;;;11.30;99.90;;;;;;4409227;32;20627;-69
2023/04/29 02:53:08;;;;;;;1.05;0.95;;;11.30;99.90;;;;;;4421377;32;20678;-70
2023/04/29 02:55:33;;;;;;;1.12;0.80;;;11.20;99.90;;;;;;4421828;32;20092;-68
2023/04/29 02:57:59;;;;;;;0.80;0.77;;;11.20;99.90;;;;;;4424264;32;20085;-68
2023/04/29 03:00:24;;;;;;;0.50;0.50;;;11.20;99.90;;;;;;4422045;32;20074;-70
2023/04/29 03:02:50;;;;;;;1.15;0.98;;;11.20;99.90;;;;;;4422028;32;21467;-69
2023/04/29 03:05:15;;;;;;;2.30;1.45;;;11.20;99.90;;;;;;4423894;32;20085;-68
2023/04/29 03:07:41;;;;;;;0.82;0.75;;;11.20;99.90;;;;;;4424096;32;20087;-68
2023/04/29 03:10:07;;;;;;;1.65;1.05;;;11.20;99.90;;;;;;4422779;32;20211;-67
2023/04/29 03:12:33;;;;;;;1.37;0.75;;;11.20;99.90;;;;;;4422632;32;20068;-68
2023/04/29 03:14:59;;;;;;;1.40;0.70;;;11.20;99.90;;;;;;4422378;32;20471;-69
2023/04/29 03:17:24;;;;;;;0.88;0.88;;;11.20;99.90;;;;;;4420793;32;20616;-69
2023/04/29 03:19:52;;;;;;;1.45;1.15;;;11.20;99.90;;;;;;4421178;32;20073;-69
2023/04/29 03:22:17;;;;;;;0.88;0.70;;;11.30;99.90;;;;;;4422659;32;20128;-69
2023/04/29 03:24:43;;;;;;;1.25;0.82;;;11.40;99.90;;;;;;4422232;32;20073;-68
2023/04/29 03:27:09;;;;;;;0.70;0.70;;;11.40;99.90;;;;;;4421313;32;20509;-68
2023/04/29 03:29:35;;;;;;;1.12;0.95;;;11.40;99.90;;;;;;4421127;32;20097;-68
2023/04/29 03:32:01;;;;;;;2.95;0.88;;;11.40;99.90;;;;;;4423846;32;20440;-69
2023/04/29 03:34:27;;;;;;;2.70;1.30;;;11.50;99.90;;;;;;4425615;32;20065;-69
2023/04/29 03:36:53;;;;;;;1.75;1.48;;;11.40;99.90;;;;;;4421622;32;20133;-69
2023/04/29 03:39:18;;;;;;;0.70;0.70;;;11.50;99.90;;;;;;4423010;32;20645;-68
2023/04/29 03:41:46;;;;;;;0.85;0.85;;;11.40;99.90;;;;;;4409759;32;20088;-69
2023/04/29 03:44:11;;;;;;;0.62;0.62;;;11.50;99.90;;;;;;4422394;32;20120;-69
2023/04/29 03:46:36;;;;;;;1.15;0.88;;;11.50;99.90;;;;;;4423159;32;20471;-69
2023/04/29 03:49:02;;;;;;;1.70;0.98;;;11.50;99.90;;;;;;4423228;32;20181;-68
2023/04/29 03:51:28;;;;;;;0.70;0.70;;;11.50;99.90;;;;;;4422709;32;20527;-69
2023/04/29 03:53:56;;;;;;;1.85;1.48;;;11.60;99.90;;;;;;4421404;32;20106;-68
2023/04/29 03:56:22;;;;;;;1.75;0.82;;;11.60;99.90;;;;;;4424297;32;20098;-69
2023/04/29 03:58:47;;;;;;;2.90;1.50;;;11.60;99.90;;;;;;4425559;32;20062;-67
2023/04/29 04:01:14;;;;;;;0.90;0.90;;;11.60;99.90;;;;;;4424562;32;20097;-70
2023/04/29 04:03:39;;;;;;;2.47;0.90;;;11.50;99.90;;;;;;4426679;32;20529;-69
2023/04/29 04:06:05;;;;;;;2.08;1.20;;;11.50;99.90;;;;;;4425988;32;20084;-69
2023/04/29 04:08:30;;;;;;;1.60;1.02;;;11.50;99.90;;;;;;4425881;32;20117;-67
2023/04/29 04:11:01;;;;;;;1.27;0.82;;;11.60;99.90;;;;;;4425215;32;20089;-70
2023/04/29 04:13:27;;;;;;;0.65;0.65;;;11.60;99.90;;;;;;4425224;32;20533;-69
2023/04/29 04:15:53;;;;;;;1.45;0.98;;;11.60;99.90;;;;;;4421167;32;20101;-69
2023/04/29 04:18:18;;;;;;;1.25;0.85;;;11.60;99.90;;;;;;4411546;32;20557;-69
2023/04/29 04:20:44;;;;;;;0.43;0.43;;;11.70;99.90;;;;;;4424590;32;20064;-67
2023/04/29 04:23:10;;;;;;;1.73;1.23;;;11.70;99.90;;;;;;4423683;32;20093;-68
2023/04/29 04:25:35;;;;;;;2.20;0.82;;;11.80;99.90;;;;;;4423369;32;20086;-69
2023/04/29 04:28:01;;;;;;;0.50;0.50;;;11.80;99.90;;;;;;4424233;32;20524;-69
2023/04/29 04:30:26;;;;;;;2.10;1.25;;;11.80;99.90;;;;;;4423276;32;20845;-69
2023/04/29 04:32:52;;;;;;;1.52;0.70;;;11.80;99.90;;;;;;4424622;32;20084;-69
2023/04/29 04:35:17;;;;;;;2.33;0.80;;;11.70;99.90;;;;;;4424755;32;20086;-69
2023/04/29 04:37:43;;;;;;;1.15;1.05;;;11.80;99.90;;;;;;4424415;32;20074;-69
2023/04/29 04:40:10;;;;;;;0.85;0.85;;;11.80;99.90;;;;;;4423324;32;20115;-69
2023/04/29 04:42:36;;;;;;;1.40;1.00;;;11.90;99.90;;;;;;4423591;32;20101;-69
2023/04/29 04:45:02;;;;;;;0.68;0.62;;;11.90;99.90;;;;;;4425776;32;20082;-69
2023/04/29 04:47:27;;;;;;;5.47;1.52;;;11.90;99.90;;;;;;4425219;32;20622;-69
2023/04/29 04:49:54;;;;;;;1.23;1.10;;;11.90;99.90;;;;;;4426354;32;20069;-67
2023/04/29 04:52:21;;;;;;;0.88;0.88;;;11.90;99.90;;;;;;4422920;32;20093;-67
2023/04/29 04:54:46;;;;;;;0.85;0.82;;;11.90;99.90;;;;;;4424017;32;20790;-67
2023/04/29 04:57:12;;;;;;;1.15;1.08;;;11.90;99.90;;;;;;4409371;32;20164;-67
2023/04/29 04:59:38;;;;;;;1.55;1.00;;;11.80;99.90;;;;;;4411654;32;20119;-67
2023/04/29 05:02:03;;;;;;;1.60;1.12;;;11.80;99.90;;;;;;4408792;32;20069;-68
2023/04/29 05:04:29;;;;;;;3.58;0.90;;;11.90;99.90;;;;;;4424341;32;20089;-68
2023/04/29 05:06:54;;;;;;;1.45;1.20;;;11.90;99.90;;;;;;4424953;32;20073;-67
2023/04/29 05:09:20;;;;;;;0.88;0.80;;;11.90;99.90;;;;;;4422317;32;20097;-67
2023/04/29 05:11:45;;;;;;;1.15;0.88;;;11.90;99.90;;;;;;4424494;32;20522;-68
2023/04/29 05:14:11;;;;;;;8.50;1.58;;;11.90;99.90;;;;;;4424084;32;20146;-67
2023/04/29 05:16:37;;;;;;;0.93;0.88;;;11.90;99.90;;;;;;4423677;32;20069;-68
2023/04/29 05:19:02;;;;;;;8.25;2.17;;;11.90;99.90;;;;;;4424485;32;20520;-68
2023/04/29 05:21:28;;;;;;;0.73;0.70;;;12.00;99.90;;;;;;4409028;32;20101;-67
2023/04/29 05:23:53;;;;;;;1.27;0.88;;;11.90;99.90;;;;;;4425244;32;20224;-68
2023/04/29 05:26:18;;;;;;;1.52;1.00;;;12.00;99.90;;;;;;4425263;32;20481;-68
2023/04/29 05:28:44;;;;;;;8.02;2.70;;;11.90;99.90;;;;;;4424093;32;20147;-67
2023/04/29 05:31:10;;;;;;;1.52;1.05;;;12.00;99.90;;;;;;4423341;32;20101;-68
2023/04/29 05:33:35;;;;;;;2.15;0.73;;;12.00;99.90;;;;;;4422704;32;20567;-67
2023/04/29 05:36:01;;;;;;;2.70;1.15;;;12.00;99.90;;;;;;4421730;32;20097;-68
2023/04/29 05:38:27;;;;;;;4.25;1.30;;;12.00;99.90;;;;;;4424743;32;20100;-68
2023/04/29 05:40:55;;;;;;;1.92;1.17;;;12.00;99.90;;;;;;4423495;32;20084;-68
2023/04/29 05:43:20;;;;;;;10.63;2.30;;;12.00;99.90;;;;;;4407327;32;20098;-68
2023/04/29 05:45:46;;;;;;;1.10;1.00;;;12.00;99.90;;;;;;4424732;32;20475;-67
2023/04/29 05:48:11;;;;;;;2.37;1.65;;;12.00;99.90;;;;;;4422823;32;20065;-68
2023/04/29 05:50:37;;;;;;;1.37;0.98;;;11.90;99.90;;;;;;4423752;32;20505;-68
2023/04/29 05:53:03;;;;;;;7.32;1.83;;;11.90;99.90;;;;;;4423644;32;20143;-68
2023/04/29 05:55:29;;;;;;;0.80;0.70;;;11.90;99.90;;;;;;4423148;32;20081;-68
2023/04/29 05:57:55;;;;;;;3.17;1.00;;;11.90;99.90;;;;;;4423128;32;20565;-66
2023/04/29 06:00:20;;;;;;;1.65;1.00;;;12.00;99.90;;;;;;4422854;32;20076;-68
2023/04/29 06:02:46;;;;;;;4.28;1.40;;;12.00;99.90;;;;;;4422701;32;20098;-67
2023/04/29 06:05:11;;;;;;;1.45;1.27;;;12.10;99.90;;;;;;4424872;32;20073;-68
2023/04/29 06:07:38;;;;;;;1.08;1.00;;;12.00;99.90;;;;;;4422010;32;20076;-68
2023/04/29 06:10:04;;;;;;;2.28;1.30;;;12.10;99.90;;;;;;4410612;32;20060;-67
2023/04/29 06:12:30;;;;;;;1.00;0.93;;;12.10;99.90;;;;;;4422161;32;20073;-68
2023/04/29 06:14:55;;;;;;;2.90;1.67;;;12.10;99.90;;;;;;4421333;32;20090;-68
2023/04/29 06:17:21;;;;;;;2.10;1.48;;;12.10;99.90;;;;;;4420371;32;20081;-68
2023/04/29 06:19:46;;;;;;;6.60;1.12;;;12.10;99.90;;;;;;4423704;32;20092;-67
2023/04/29 06:22:12;;;;;;;2.25;1.15;;;12.10;99.90;;;;;;4422760;32;20312;-68
2023/04/29 06:24:37;;;;;;;0.73;0.73;;;12.10;99.90;;;;;;4423138;32;20058;-67
2023/04/29 06:27:03;;;;;;;1.73;0.65;;;12.10;99.90;;;;;;4421642;32;20142;-68
2023/04/29 06:29:29;;;;;;;0.93;0.88;;;12.20;99.90;;;;;;4422586;32;20093;-68
2023/04/29 06:31:55;;;;;;;1.55;1.05;;;12.20;99.90;;;;;;4418609;32;20084;-68
2023/04/29 06:34:20;;;;;;;3.42;1.60;;;12.20;99.90;;;;;;4422769;32;20322;-68
2023/04/29 06:36:46;;;;;;;1.08;1.00;;;12.20;99.90;;;;;;4423934;32;20101;-67
2023/04/29 06:39:11;;;;;;;0.70;0.70;;;12.20;99.90;;;;;;4422961;32;20089;-69
2023/04/29 06:41:37;;;;;;;0.93;0.90;;;12.30;99.90;;;;;;4423066;32;20077;-69
2023/04/29 06:44:02;;;;;;;1.10;1.00;;;12.20;99.90;;;;;;4422293;32;20098;-69
2023/04/29 06:46:28;;;;;;;1.17;1.00;;;12.30;99.90;;;;;;4421668;32;20517;-68
2023/04/29 06:48:53;;;;;;;1.37;0.73;;;12.30;99.90;;;;;;4420334;32;21265;-69
2023/04/29 06:51:19;;;;;;;1.00;0.93;;;12.30;99.90;;;;;;4420640;32;20078;-69
2023/04/29 06:53:45;;;;;;;1.08;0.73;;;12.30;99.90;;;;;;4423185;32;20487;-69
2023/04/29 06:56:11;;;;;;;1.77;0.90;;;12.20;99.90;;;;;;4423271;32;20084;-68
2023/04/29 06:58:37;;;;;;;4.62;0.70;;;12.20;99.90;;;;;;4408123;32;20152;-69
2023/04/29 07:01:03;;;;;;;2.50;0.70;;;12.20;99.90;;;;;;4418771;32;20559;-69
2023/04/29 07:03:29;;;;;;;7.57;1.60;;;12.20;99.90;;;;;;4409225;32;20086;-67
2023/04/29 07:05:54;;;;;;;9.68;1.55;;;12.20;99.90;;;;;;4423250;32;20104;-69
2023/04/29 07:08:20;;;;;;;0.70;0.70;;;12.30;99.90;;;;;;4424773;32;20088;-70
2023/04/29 07:10:56;;;;;;;3.55;2.12;;;12.20;99.90;;;;;;4424258;32;20564;-69
2023/04/29 07:13:22;;;;;;;0.57;0.57;;;12.30;99.90;;;;;;4425701;32;20108;-69
2023/04/29 07:15:47;;;;;;;2.47;1.10;;;12.20;99.90;;;;;;4409133;32;20205;-69
2023/04/29 07:18:13;;;;;;;3.12;1.45;;;12.20;99.90;;;;;;4422885;32;20178;-69
2023/04/29 07:20:38;;;;;;;0.80;0.80;;;12.10;99.90;;;;;;4422543;32;20090;-70
2023/04/29 07:23:05;;;;;;;1.20;0.73;;;12.10;99.90;;;;;;4421423;32;20061;-69
2023/04/29 07:25:30;;;;;;;2.55;0.90;;;12.10;99.90;;;;;;4422543;32;20085;-69
2023/04/29 07:27:56;;;;;;;1.15;0.98;;;12.00;99.90;;;;;;4420462;32;20109;-69
2023/04/29 07:30:23;;;;;;;0.70;0.70;;;12.00;99.90;;;;;;4407504;32;20164;-68
2023/04/29 07:32:48;;;;;;;1.73;1.20;;;11.90;99.90;;;;;;4420361;32;20069;-69
2023/04/29 07:35:14;;;;;;;3.60;1.30;;;11.90;99.90;;;;;;4421824;32;20553;-69
2023/04/29 07:37:40;;;;;;;1.90;1.40;;;11.90;99.90;;;;;;4422031;32;20077;-70
2023/04/29 07:40:06;;;;;;;2.20;1.25;;;11.90;99.90;;;;;;4420896;32;20061;-70
2023/04/29 07:42:32;;;;;;;4.35;1.40;;;11.90;99.90;;;;;;4407869;32;20633;-69
2023/04/29 07:44:57;;;;;;;1.48;1.17;;;11.90;99.90;;;;;;4422659;32;20603;-69
2023/04/29 07:47:22;;;;;;;1.90;0.77;;;11.90;99.90;;;;;;4424109;32;20525;-69
2023/04/29 07:49:48;;;;;;;2.95;1.17;;;11.90;99.90;;;;;;4421645;32;20128;-70
2023/04/29 07:52:13;;;;;;;1.45;1.12;;;11.90;99.90;;;;;;4421352;32;20069;-70
2023/04/29 07:54:39;;;;;;;5.10;1.02;;;11.90;99.90;;;;;;4421341;32;20069;-70
2023/04/29 07:57:04;;;;;;;5.53;0.90;;;12.00;99.90;;;;;;4421788;32;20556;-70
2023/04/29 07:59:30;;;;;;;3.70;0.80;;;12.00;99.90;;;;;;4422756;32;20170;-70
2023/04/29 08:01:56;;;;;;;1.30;0.85;;;11.90;99.90;;;;;;4421736;32;20157;-69
2023/04/29 08:04:22;;;;;;;1.62;1.33;;;11.90;99.90;;;;;;4421588;32;20156;-70
2023/04/29 08:06:48;;;;;;;3.28;1.45;;;11.90;99.90;;;;;;4420436;32;20069;-69
2023/04/29 08:09:14;;;;;;;1.75;0.60;;;11.90;99.90;;;;;;4419954;32;20093;-70
2023/04/29 08:11:39;;;;;;;0.77;0.77;;;11.90;99.90;;;;;;4420916;32;20066;-69
2023/04/29 08:14:05;;;;;;;0.75;0.73;;;11.90;99.90;;;;;;4421403;32;20426;-69
2023/04/29 08:16:30;;;;;;;2.85;1.52;;;11.90;99.90;;;;;;4422695;32;20143;-69
2023/04/29 08:18:56;;;;;;;3.83;0.60;;;11.90;99.90;;;;;;4421917;32;20085;-70
2023/04/29 08:21:22;;;;;;;0.73;0.73;;;11.80;99.90;;;;;;4423250;32;20253;-69
2023/04/29 08:23:47;;;;;;;1.95;0.90;;;11.70;99.90;;;;;;4422958;32;20073;-69
2023/04/29 08:26:13;;;;;;;0.60;0.60;;;11.70;99.90;;;;;;4422335;32;20443;-71
2023/04/29 08:28:39;;;;;;;0.40;0.40;;;11.70;99.90;;;;;;4418894;32;20089;-70
2023/04/29 08:31:06;;;;;;;1.00;0.90;;;11.70;99.90;;;;;;4403619;32;20553;-69
2023/04/29 08:33:33;;;;;;;0.90;0.82;;;11.80;99.90;;;;;;4418341;32;20076;-70
2023/04/29 08:36:02;;;;;;;0.55;0.55;;;11.80;99.90;;;;;;4419693;32;20084;-69
2023/04/29 08:38:28;;;;;;;0.75;0.75;;;11.80;99.90;;;;;;4405633;32;20109;-69
2023/04/29 08:40:55;;;;;;;1.10;1.00;;;11.80;99.90;;;;;;4422062;32;20062;-70
2023/04/29 08:43:20;;;;;;;1.02;0.70;;;11.80;99.90;;;;;;4409318;32;20154;-69
2023/04/29 08:45:47;;;;;;;1.27;1.15;;;11.90;99.90;;;;;;4426742;32;20076;-70
2023/04/29 08:48:15;;;;;;;1.08;0.73;;;11.90;99.90;;;;;;4424345;32;20430;-69
2023/04/29 08:50:41;;;;;;;0.60;0.60;;;11.80;99.90;;;;;;4408971;32;20338;-69
2023/04/29 08:53:08;;;;;;;8.52;2.15;;;11.80;99.90;;;;;;4396932;32;20561;-69
2023/04/29 08:55:36;;;;;;;1.25;0.60;;;11.80;99.90;;;;;;4398734;32;20192;-69
2023/04/29 08:58:02;;;;;;;1.15;0.77;;;11.80;99.90;;;;;;4423692;32;20073;-69
2023/04/29 09:00:29;;;;;;;0.50;0.50;;;11.70;99.90;;;;;;4422863;32;20090;-68
2023/04/29 09:02:57;;;;;;;2.15;1.10;;;11.70;99.90;;;;;;4423979;32;20097;-69
2023/04/29 09:05:24;;;;;;;0.88;0.70;;;11.70;99.90;;;;;;4424957;32;20069;-67
2023/04/29 09:07:51;;;;;;;0.90;0.85;;;11.70;99.90;;;;;;4423427;32;20117;-69
2023/04/29 09:10:17;;;;;;;0.80;0.80;;;11.80;99.90;;;;;;4423975;32;20085;-68
2023/04/29 09:12:43;;;;;;;10.77;0.93;;;11.90;99.90;;;;;;4424790;32;20525;-68
2023/04/29 09:15:09;;;;;;;1.25;0.70;;;11.80;99.90;;;;;;4426391;32;20080;-67
2023/04/29 09:17:44;;;;;;;1.75;1.27;;;11.80;99.90;;;;;;4420736;32;20066;-68
2023/04/29 09:20:26;;;;;;;1.55;1.10;;;11.70;99.90;;;;;;4412360;32;20140;-66
2023/04/29 09:22:55;;;;;;;1.17;0.90;;;11.70;99.90;;;;;;4425122;32;20449;-69
2023/04/29 09:25:22;;;;;;;4.97;1.77;;;11.70;99.90;;;;;;4426264;32;20061;-70
2023/04/29 09:27:47;;;;;;;2.35;1.08;;;11.70;99.90;;;;;;4425932;32;20081;-69
2023/04/29 09:30:15;;;;;;;4.62;1.25;;;11.70;99.90;;;;;;4425225;32;20579;-69
2023/04/29 09:32:41;;;;;;;0.93;0.80;;;11.70;99.90;;;;;;4425214;32;20089;-69
2023/04/29 09:35:24;;;;;;;1.85;1.23;;;11.70;99.90;;;;;;4422876;32;20549;-69
2023/04/29 09:37:50;;;;;;;0.60;0.60;;;11.70;99.90;;;;;;4408950;32;20125;-69
2023/04/29 09:40:33;;;;;;;1.23;0.90;;;11.60;99.90;;;;;;4424297;32;20529;-68
2023/04/29 09:42:59;;;;;;;0.65;0.62;;;11.70;99.90;;;;;;4422825;32;20081;-69
2023/04/29 09:45:34;;;;;;;1.45;1.10;;;11.70;99.90;;;;;;4424137;32;20093;-70
2023/04/29 09:48:03;;;;;;;0.75;0.75;;;11.60;99.90;;;;;;4423014;32;20076;-69
2023/04/29 09:50:29;;;;;;;2.47;1.33;;;11.60;99.90;;;;;;4425557;32;20078;-68
2023/04/29 09:52:55;;;;;;;4.22;1.40;;;11.60;99.90;;;;;;4422306;32;20089;-69
2023/04/29 09:55:20;;;;;;;3.42;1.30;;;11.50;99.90;;;;;;4422208;32;20582;-68
2023/04/29 09:57:46;;;;;;;3.45;1.55;;;11.50;99.90;;;;;;4424149;32;20102;-68
2023/04/29 10:00:13;;;;;;;8.30;1.30;;;11.50;99.90;;;;;;4423145;32;20104;-68
2023/04/29 10:02:41;;;;;;;3.92;1.83;;;11.60;99.90;;;;;;4423679;32;20077;-69
2023/04/29 10:05:08;;;;;;;1.67;1.17;;;11.60;99.90;;;;;;4424008;32;20156;-68
2023/04/29 10:07:34;;;;;;;0.70;0.70;;;11.50;99.90;;;;;;4425210;32;20089;-69
2023/04/29 10:10:01;;;;;;;1.62;1.15;;;11.50;99.90;;;;;;4421885;32;20065;-69
2023/04/29 10:12:27;;;;;;;1.75;1.00;;;11.60;99.90;;;;;;4424085;32;20093;-68
2023/04/29 10:15:32;;;;;;;1.10;1.02;;;11.60;99.90;;;;;;4424895;32;20101;-68
2023/04/29 10:18:11;;;;;;;1.25;1.15;;;11.70;99.90;;;;;;4415922;32;20366;-69
2023/04/29 10:20:39;;;;;;;1.15;0.95;;;11.60;99.90;;;;;;4410855;32;20739;-65
2023/04/29 10:23:05;;;;;;;3.47;1.30;;;11.70;99.90;;;;;;4409983;32;20119;-69
2023/04/29 10:25:34;;;;;;;7.70;1.55;;;11.70;99.90;;;;;;4424295;32;20085;-69
2023/04/29 10:28:03;;;;;;;3.45;1.35;;;11.70;99.90;;;;;;4422226;32;20549;-67
2023/04/29 10:30:29;;;;;;;1.95;1.00;;;11.70;99.90;;;;;;4423436;32;20139;-68
2023/04/29 10:32:56;;;;;;;5.65;2.42;;;11.70;99.90;;;;;;4422736;32;20085;-69
2023/04/29 10:35:24;;;;;;;4.70;1.95;;;11.60;99.90;;;;;;4422700;32;20508;-68
2023/04/29 10:37:51;;;;;;;6.87;2.50;;;11.80;99.90;;;;;;4420988;32;20069;-68
2023/04/29 10:40:23;;;;;;;15.88;1.87;;;11.80;99.90;;;;;;4420237;32;20128;-71
2023/04/29 10:42:51;;;;;;;6.45;1.65;;;11.80;99.90;;;;;;4409876;32;20082;-68
2023/04/29 10:45:23;;;;;;;10.10;2.37;;;11.80;99.90;;;;;;4423658;32;20097;-67
2023/04/29 10:48:08;;;;;;;5.22;1.60;;;11.80;99.90;;;;;;4410101;32;20066;-71
2023/04/29 10:50:44;;;;;;;5.00;2.03;;;11.80;99.90;;;;;;4423345;32;20089;-67
2023/04/29 10:53:09;;;;;;;1.05;0.95;;;11.80;99.90;;;;;;4422992;32;20117;-66
2023/04/29 10:55:36;;;;;;;1.77;1.25;;;11.70;99.90;;;;;;4421128;32;20085;-68
2023/04/29 10:58:03;;;;;;;4.37;1.60;;;11.80;99.90;;;;;;4423745;32;20085;-67
2023/04/29 11:00:30;;;;;;;2.50;1.83;;;11.80;99.90;;;;;;4397278;32;20132;-68
2023/04/29 11:02:58;;;;;;;28.20;1.55;;;11.80;99.90;;;;;;4423288;32;20057;-66
2023/04/29 11:05:38;;;;;;;1.37;1.27;;;11.90;99.90;;;;;;4421529;32;20080;-68
2023/04/29 11:08:11;;;;;;;1.77;1.48;;;11.80;99.90;;;;;;4421522;32;20588;-69
2023/04/29 11:10:40;;;;;;;2.47;1.15;;;12.00;99.90;;;;;;4422809;32;20097;-69
2023/04/29 11:13:27;;;;;;;1.70;1.12;;;12.00;99.90;;;;;;4422987;32;20094;-66
2023/04/29 11:16:02;;;;;;;1.60;0.95;;;12.10;99.90;;;;;;4411364;32;20084;-69
2023/04/29 11:18:28;;;;;;;1.10;1.10;;;12.10;99.90;;;;;;4424146;32;20114;-68
2023/04/29 11:21:10;;;;;;;0.70;0.70;;;12.20;99.90;;;;;;4421648;32;20140;-70
2023/04/29 11:23:38;;;;;;;2.10;1.48;;;12.30;99.90;;;;;;4406976;32;20479;-70
2023/04/29 11:26:03;;;;;;;6.68;2.58;;;12.40;99.90;;;;;;4421962;32;20061;-69
2023/04/29 11:28:30;;;;;;;0.98;0.98;;;12.50;99.90;;;;;;4422886;32;20856;-68
2023/04/29 11:30:57;;;;;;;1.10;1.00;;;12.50;99.90;;;;;;4421653;32;20133;-69
2023/04/29 11:33:24;;;;;;;1.10;1.00;;;12.60;99.90;;;;;;4421963;32;20084;-69
2023/04/29 11:35:50;;;;;;;2.85;1.75;;;12.70;99.90;;;;;;4420966;32;20676;-69
2023/04/29 11:38:16;;;;;;;2.03;1.25;;;12.70;99.90;;;;;;4420766;32;20508;-70
2023/04/29 11:40:47;;;;;;;2.03;1.00;;;12.70;99.90;;;;;;4419357;32;20139;-69
2023/04/29 11:43:17;;;;;;;3.50;1.52;;;12.80;99.90;;;;;;4420832;32;20092;-66
2023/04/29 11:45:45;;;;;;;2.67;1.30;;;12.80;99.90;;;;;;4404849;32;85043;-69
2023/04/29 11:48:19;;;;;;;9.70;2.72;;;12.70;99.90;;;;;;4409599;32;20121;-68
2023/04/29 11:50:47;;;;;;;24.90;1.40;;;12.80;99.90;;;;;;4422471;32;20066;-69
2023/04/29 11:53:13;;;;;;;0.88;0.88;;;12.70;99.90;;;;;;4421581;32;20143;-68
2023/04/29 11:55:41;;;;;;;1.15;1.00;;;12.80;99.90;;;;;;4421689;32;20058;-69
2023/04/29 11:58:07;;;;;;;1.20;0.95;;;12.70;99.90;;;;;;4421123;32;20085;-66
2023/04/29 12:00:32;;;;;;;5.97;1.23;;;12.60;99.90;;;;;;4421892;32;20069;-69
2023/04/29 12:02:58;;;;;;;0.73;0.73;;;12.70;99.90;;;;;;4423432;32;20097;-67
2023/04/29 12:05:25;;;;;;;1.95;1.17;;;12.70;99.90;;;;;;4423083;32;20089;-68
2023/04/29 12:07:50;;;;;;;2.10;0.88;;;12.90;99.90;;;;;;4420200;32;20068;-67
2023/04/29 12:10:16;;;;;;;1.27;1.15;;;13.00;99.90;;;;;;4421175;32;20540;-69
2023/04/29 12:12:42;;;;;;;2.40;1.48;;;13.00;99.90;;;;;;4422031;32;20074;-69
2023/04/29 12:15:09;;;;;;;3.12;0.80;;;13.00;99.90;;;;;;4423541;32;20511;-69
2023/04/29 12:17:34;;;;;;;6.15;1.58;;;13.10;99.90;;;;;;4422470;32;20097;-69
2023/04/29 12:20:01;;;;;;;1.12;1.08;;;12.90;99.90;;;;;;4424569;32;20114;-69
2023/04/29 12:22:33;;;;;;;17.33;2.60;;;12.90;99.90;;;;;;4426140;32;20524;-69
2023/04/29 12:25:02;;;;;;;3.83;1.00;;;12.90;99.90;;;;;;4408982;32;20155;-69
2023/04/29 12:27:28;;;;;;;2.72;1.15;;;13.00;99.90;;;;;;4423822;32;20505;-69
2023/04/29 12:29:55;;;;;;;0.82;0.82;;;13.00;99.90;;;;;;4423312;32;20105;-70
2023/04/29 12:32:22;;;;;;;5.62;1.10;;;13.10;99.90;;;;;;4420602;32;20126;-69
2023/04/29 12:34:51;;;;;;;1.55;1.33;;;13.00;99.90;;;;;;4422940;32;20097;-69
2023/04/29 12:37:17;;;;;;;1.85;1.30;;;13.00;99.90;;;;;;4421398;32;20092;-69
2023/04/29 12:39:42;;;;;;;1.37;1.17;;;13.00;99.90;;;;;;4409794;32;20089;-68
2023/04/29 12:42:15;;;;;;;0.85;0.82;;;12.90;99.90;;;;;;4424004;32;20090;-69
2023/04/29 12:44:43;;;;;;;1.08;0.80;;;12.90;99.90;;;;;;4411194;32;20105;-68